sensor_id;sensor_type;location;lat;lon;timestamp;pressure;altitude;pressure_sealevel;temperature;humidity
25650;BME280;13505;45.196;5.696;2022-09-09T04:00:57;99149.75;;;17.95;73.06
25650;BME280;13505;45.196;5.696;2022-09-09T04:05:49;99151.66;;;17.93;72.52
25650;BME280;13505;45.196;5.696;2022-09-09T04:10:39;99151.69;;;18.05;72.08
25650;BME280;13505;45.196;5.696;2022-09-09T04:15:30;99151.13;;;18.12;71.23
25650;BME280;13505;45.196;5.696;2022-09-09T04:20:21;99148.63;;;17.86;71.60
25650;BME280;13505;45.196;5.696;2022-09-09T04:25:12;99147.53;;;17.89;71.78
25650;BME280;13505;45.196;5.696;2022-09-09T04:30:02;99147.97;;;17.71;72.92
25650;BME280;13505;45.196;5.696;2022-09-09T04:34:53;99159.75;;;17.69;72.46
25650;BME280;13505;45.196;5.696;2022-09-09T04:39:43;99167.00;;;17.78;71.78
25650;BME280;13505;45.196;5.696;2022-09-09T04:44:35;99162.50;;;17.67;72.31
25650;BME280;13505;45.196;5.696;2022-09-09T04:49:26;99163.66;;;17.88;71.55
25650;BME280;13505;45.196;5.696;2022-09-09T04:54:16;99168.88;;;17.89;70.88
25650;BME280;13505;45.196;5.696;2022-09-09T04:59:06;99170.03;;;17.74;71.99
25650;BME280;13505;45.196;5.696;2022-09-09T05:03:57;99170.13;;;17.61;73.43
25650;BME280;13505;45.196;5.696;2022-09-09T05:08:48;99170.75;;;17.64;72.90
25650;BME280;13505;45.196;5.696;2022-09-09T05:13:39;99173.63;;;17.61;72.77
25650;BME280;13505;45.196;5.696;2022-09-09T05:18:30;99181.91;;;17.69;72.40
25650;BME280;13505;45.196;5.696;2022-09-09T05:23:20;99189.25;;;17.54;73.06
25650;BME280;13505;45.196;5.696;2022-09-09T05:28:10;99192.81;;;17.66;72.87
25650;BME280;13505;45.196;5.696;2022-09-09T05:33:01;99202.25;;;17.59;73.63
25650;BME280;13505;45.196;5.696;2022-09-09T05:37:52;99207.66;;;18.18;70.72
25650;BME280;13505;45.196;5.696;2022-09-09T05:42:42;99209.53;;;17.93;71.11
25650;BME280;13505;45.196;5.696;2022-09-09T05:47:32;99212.19;;;18.29;73.01
25650;BME280;13505;45.196;5.696;2022-09-09T05:52:23;99216.19;;;18.34;69.12
25650;BME280;13505;45.196;5.696;2022-09-09T05:57:14;99227.28;;;18.05;69.71
25650;BME280;13505;45.196;5.696;2022-09-09T06:02:05;99225.78;;;17.90;70.15
25650;BME280;13505;45.196;5.696;2022-09-09T06:06:55;99228.19;;;17.93;70.61
25650;BME280;13505;45.196;5.696;2022-09-09T06:11:45;99230.81;;;18.06;71.03
25650;BME280;13505;45.196;5.696;2022-09-09T06:16:36;99231.94;;;18.15;70.31
25650;BME280;13505;45.196;5.696;2022-09-09T06:21:34;99226.88;;;18.34;69.55
25650;BME280;13505;45.196;5.696;2022-09-09T06:26:29;99233.66;;;18.61;68.67
25650;BME280;13505;45.196;5.696;2022-09-09T06:31:22;99228.22;;;18.51;69.67
25650;BME280;13505;45.196;5.696;2022-09-09T06:36:21;99221.78;;;18.65;69.61
25650;BME280;13505;45.196;5.696;2022-09-09T06:41:14;99230.16;;;18.95;68.37
25650;BME280;13505;45.196;5.696;2022-09-09T06:51:18;99243.09;;;19.34;66.86
25650;BME280;13505;45.196;5.696;2022-09-09T07:01:05;99248.84;;;19.73;65.13
25650;BME280;13505;45.196;5.696;2022-09-09T07:05:56;99249.47;;;19.98;64.42
25650;BME280;13505;45.196;5.696;2022-09-09T07:10:46;99229.81;;;20.30;63.77
25650;BME280;13505;45.196;5.696;2022-09-09T07:15:37;99227.97;;;20.52;62.22
25650;BME280;13505;45.196;5.696;2022-09-09T07:20:27;99228.22;;;20.80;61.28
25650;BME280;13505;45.196;5.696;2022-09-09T07:25:18;99228.63;;;21.16;61.01
25650;BME280;13505;45.196;5.696;2022-09-09T07:30:08;99226.69;;;21.28;59.64
25650;BME280;13505;45.196;5.696;2022-09-09T07:34:59;99229.66;;;21.45;59.25
25650;BME280;13505;45.196;5.696;2022-09-09T07:39:50;99230.53;;;21.65;59.21
25650;BME280;13505;45.196;5.696;2022-09-09T07:44:41;99231.09;;;22.08;56.93
25650;BME280;13505;45.196;5.696;2022-09-09T07:49:31;99234.34;;;21.53;57.46
25650;BME280;13505;45.196;5.696;2022-09-09T07:54:22;99223.34;;;21.85;57.33
25650;BME280;13505;45.196;5.696;2022-09-09T07:59:13;99226.25;;;22.31;56.14
25650;BME280;13505;45.196;5.696;2022-09-09T08:04:05;99229.16;;;22.68;54.23
25650;BME280;13505;45.196;5.696;2022-09-09T08:08:57;99219.88;;;23.08;53.29
25650;BME280;13505;45.196;5.696;2022-09-09T08:13:47;99207.22;;;23.28;53.07
25650;BME280;13505;45.196;5.696;2022-09-09T08:18:38;99221.59;;;23.55;51.55
25650;BME280;13505;45.196;5.696;2022-09-09T08:23:29;99222.22;;;22.65;52.76
25650;BME280;13505;45.196;5.696;2022-09-09T08:28:19;99222.75;;;23.53;51.25
25650;BME280;13505;45.196;5.696;2022-09-09T08:33:09;99230.09;;;24.23;50.65
25650;BME280;13505;45.196;5.696;2022-09-09T08:38:00;99211.59;;;24.55;49.29
25650;BME280;13505;45.196;5.696;2022-09-09T08:42:53;99213.84;;;25.03;49.11
25650;BME280;13505;45.196;5.696;2022-09-09T08:48:10;99212.38;;;25.25;47.97
25650;BME280;13505;45.196;5.696;2022-09-09T08:57:59;99205.72;;;25.79;45.51
25650;BME280;13505;45.196;5.696;2022-09-09T09:13:30;99207.28;;;26.71;38.55
25650;BME280;13505;45.196;5.696;2022-09-09T09:18:24;99206.47;;;27.02;36.11
25650;BME280;13505;45.196;5.696;2022-09-09T09:23:23;99214.69;;;27.17;36.68
25650;BME280;13505;45.196;5.696;2022-09-09T09:28:24;99209.25;;;27.49;35.26
25650;BME280;13505;45.196;5.696;2022-09-09T09:38:24;99197.25;;;27.20;35.47
25650;BME280;13505;45.196;5.696;2022-09-09T09:43:20;99194.19;;;27.55;34.60
25650;BME280;13505;45.196;5.696;2022-09-09T09:48:12;99193.81;;;27.81;33.84
25650;BME280;13505;45.196;5.696;2022-09-09T09:53:04;99190.03;;;28.06;34.44
25650;BME280;13505;45.196;5.696;2022-09-09T09:58:06;99189.56;;;28.02;33.35
25650;BME280;13505;45.196;5.696;2022-09-09T10:02:59;99189.53;;;28.40;33.69
25650;BME280;13505;45.196;5.696;2022-09-09T10:08:13;99178.31;;;28.74;33.55
25650;BME280;13505;45.196;5.696;2022-09-09T10:13:14;99173.53;;;28.61;33.52
25650;BME280;13505;45.196;5.696;2022-09-09T10:29:22;99168.06;;;29.06;33.15
25650;BME280;13505;45.196;5.696;2022-09-09T10:39:39;99166.66;;;29.10;33.27
25650;BME280;13505;45.196;5.696;2022-09-09T10:45:14;99167.00;;;28.85;32.56
25650;BME280;13505;45.196;5.696;2022-09-09T10:51:27;99167.09;;;29.14;32.88
25650;BME280;13505;45.196;5.696;2022-09-09T10:55:55;99163.88;;;29.25;32.99
25650;BME280;13505;45.196;5.696;2022-09-09T11:00:51;99160.25;;;29.18;32.47
25650;BME280;13505;45.196;5.696;2022-09-09T11:05:49;99155.81;;;29.32;32.90
25650;BME280;13505;45.196;5.696;2022-09-09T11:15:42;99147.41;;;29.27;32.20
25650;BME280;13505;45.196;5.696;2022-09-09T11:20:34;99148.00;;;28.55;32.99
25650;BME280;13505;45.196;5.696;2022-09-09T11:25:31;99145.16;;;28.93;33.67
25650;BME280;13505;45.196;5.696;2022-09-09T11:40:57;99146.03;;;28.34;32.52
25650;BME280;13505;45.196;5.696;2022-09-09T11:45:54;99146.69;;;28.06;34.83
25650;BME280;13505;45.196;5.696;2022-09-09T11:51:00;99154.53;;;28.76;33.82
25650;BME280;13505;45.196;5.696;2022-09-09T11:56:03;99155.00;;;28.79;34.28
25650;BME280;13505;45.196;5.696;2022-09-09T12:00:54;99161.94;;;28.82;33.67
25650;BME280;13505;45.196;5.696;2022-09-09T12:05:45;99158.97;;;29.35;32.67
25650;BME280;13505;45.196;5.696;2022-09-09T12:10:39;99153.44;;;28.85;32.57
25650;BME280;13505;45.196;5.696;2022-09-09T12:15:30;99154.53;;;29.49;31.42
25650;BME280;13505;45.196;5.696;2022-09-09T12:20:32;99153.81;;;29.62;31.04
25650;BME280;13505;45.196;5.696;2022-09-09T12:31:14;99152.66;;;28.91;31.19
25650;BME280;13505;45.196;5.696;2022-09-09T12:36:11;99144.94;;;29.10;30.28
25650;BME280;13505;45.196;5.696;2022-09-09T12:41:03;99134.00;;;29.69;29.31
25650;BME280;13505;45.196;5.696;2022-09-09T12:46:00;99134.00;;;29.69;29.25
25650;BME280;13505;45.196;5.696;2022-09-09T12:50:52;99138.16;;;29.64;30.04
25650;BME280;13505;45.196;5.696;2022-09-09T12:55:54;99133.16;;;29.68;27.48
25650;BME280;13505;45.196;5.696;2022-09-09T13:00:54;99130.91;;;29.50;27.83
25650;BME280;13505;45.196;5.696;2022-09-09T13:05:47;99126.78;;;29.54;28.10
25650;BME280;13505;45.196;5.696;2022-09-09T13:10:47;99122.09;;;29.70;27.62
25650;BME280;13505;45.196;5.696;2022-09-09T13:15:39;99120.91;;;29.79;28.14
25650;BME280;13505;45.196;5.696;2022-09-09T13:20:30;99124.72;;;29.34;27.72
25650;BME280;13505;45.196;5.696;2022-09-09T13:25:27;99118.94;;;29.22;28.66
25650;BME280;13505;45.196;5.696;2022-09-09T13:30:34;99118.53;;;29.25;27.52
25650;BME280;13505;45.196;5.696;2022-09-09T13:35:26;99129.09;;;26.93;29.71
25650;BME280;13505;45.196;5.696;2022-09-09T13:40:19;99114.72;;;28.16;29.59
25650;BME280;13505;45.196;5.696;2022-09-09T13:45:17;99120.88;;;28.10;29.35
25650;BME280;13505;45.196;5.696;2022-09-09T13:55:11;99109.78;;;27.66;29.74
25650;BME280;13505;45.196;5.696;2022-09-09T14:00:02;99120.81;;;27.41;29.92
25650;BME280;13505;45.196;5.696;2022-09-09T14:04:52;99117.50;;;27.54;29.62
25650;BME280;13505;45.196;5.696;2022-09-09T14:09:45;99116.97;;;27.59;29.48
25650;BME280;13505;45.196;5.696;2022-09-09T14:14:39;99127.13;;;27.57;27.75
25650;BME280;13505;45.196;5.696;2022-09-09T14:19:32;99130.63;;;27.42;29.04
25650;BME280;13505;45.196;5.696;2022-09-09T14:24:22;99107.84;;;27.75;28.82
25650;BME280;13505;45.196;5.696;2022-09-09T14:29:13;99108.22;;;27.72;28.47
25650;BME280;13505;45.196;5.696;2022-09-09T14:34:03;99109.47;;;27.61;28.46
25650;BME280;13505;45.196;5.696;2022-09-09T14:38:53;99116.97;;;27.36;25.25
25650;BME280;13505;45.196;5.696;2022-09-09T14:43:44;99123.25;;;27.28;28.17
25650;BME280;13505;45.196;5.696;2022-09-09T14:48:35;99106.72;;;27.46;27.99
25650;BME280;13505;45.196;5.696;2022-09-09T14:53:26;99107.13;;;27.96;26.71
25650;BME280;13505;45.196;5.696;2022-09-09T14:58:16;99107.13;;;27.96;26.85
25650;BME280;13505;45.196;5.696;2022-09-09T15:03:07;99102.34;;;27.83;26.08
25650;BME280;13505;45.196;5.696;2022-09-09T15:07:57;99104.91;;;27.62;27.63
25650;BME280;13505;45.196;5.696;2022-09-09T15:12:48;99114.06;;;27.37;26.59
25650;BME280;13505;45.196;5.696;2022-09-09T15:17:39;99105.69;;;27.47;27.49
25650;BME280;13505;45.196;5.696;2022-09-09T15:22:29;99108.53;;;27.30;27.31
25650;BME280;13505;45.196;5.696;2022-09-09T15:27:19;99106.97;;;26.81;27.35
25650;BME280;13505;45.196;5.696;2022-09-09T15:32:10;99113.91;;;26.44;27.39
25650;BME280;13505;45.196;5.696;2022-09-09T15:37:00;99110.97;;;26.62;27.93
25650;BME280;13505;45.196;5.696;2022-09-09T15:41:51;99087.84;;;26.03;28.99
25650;BME280;13505;45.196;5.696;2022-09-09T15:46:48;99093.94;;;26.53;28.75
25650;BME280;13505;45.196;5.696;2022-09-09T15:51:41;99097.88;;;26.74;28.45
25650;BME280;13505;45.196;5.696;2022-09-09T15:56:32;99090.66;;;26.66;27.84
25650;BME280;13505;45.196;5.696;2022-09-09T16:01:23;99091.59;;;26.50;29.04
25650;BME280;13505;45.196;5.696;2022-09-09T16:06:15;99080.78;;;26.50;28.88
25650;BME280;13505;45.196;5.696;2022-09-09T16:11:11;99083.97;;;26.54;28.11
25650;BME280;13505;45.196;5.696;2022-09-09T16:16:03;99085.03;;;26.44;30.24
25650;BME280;13505;45.196;5.696;2022-09-09T16:20:55;99076.66;;;26.23;29.50
25650;BME280;13505;45.196;5.696;2022-09-09T16:25:55;99074.31;;;26.11;29.54
25650;BME280;13505;45.196;5.696;2022-09-09T16:30:45;99080.59;;;26.03;29.33
25650;BME280;13505;45.196;5.696;2022-09-09T16:35:36;99076.75;;;25.89;30.05
25650;BME280;13505;45.196;5.696;2022-09-09T16:40:28;99091.28;;;25.80;30.43
25650;BME280;13505;45.196;5.696;2022-09-09T16:45:19;99082.66;;;25.68;31.36
25650;BME280;13505;45.196;5.696;2022-09-09T16:50:09;99090.47;;;25.55;32.97
25650;BME280;13505;45.196;5.696;2022-09-09T16:54:59;99085.03;;;25.38;32.24
25650;BME280;13505;45.196;5.696;2022-09-09T16:59:50;99090.75;;;25.27;31.84
25650;BME280;13505;45.196;5.696;2022-09-09T17:04:44;99086.22;;;25.19;34.00
25650;BME280;13505;45.196;5.696;2022-09-09T17:09:34;99107.94;;;25.01;34.23
25650;BME280;13505;45.196;5.696;2022-09-09T17:14:24;99094.28;;;24.94;33.64
25650;BME280;13505;45.196;5.696;2022-09-09T17:19:15;99091.56;;;24.86;33.87
25650;BME280;13505;45.196;5.696;2022-09-09T17:24:05;99093.41;;;24.85;33.75
25650;BME280;13505;45.196;5.696;2022-09-09T17:28:57;99098.47;;;24.80;34.01
25650;BME280;13505;45.196;5.696;2022-09-09T17:33:49;99108.56;;;24.78;33.63
25650;BME280;13505;45.196;5.696;2022-09-09T17:38:40;99104.47;;;24.74;34.51
25650;BME280;13505;45.196;5.696;2022-09-09T17:43:32;99099.72;;;24.59;34.41
25650;BME280;13505;45.196;5.696;2022-09-09T17:48:23;99112.47;;;24.49;34.89
25650;BME280;13505;45.196;5.696;2022-09-09T17:53:14;99107.25;;;24.47;34.53
25650;BME280;13505;45.196;5.696;2022-09-09T17:58:05;99103.00;;;24.36;35.09
25650;BME280;13505;45.196;5.696;2022-09-09T18:02:56;99107.66;;;24.26;35.82
25650;BME280;13505;45.196;5.696;2022-09-09T18:07:46;99117.38;;;24.19;35.57
25650;BME280;13505;45.196;5.696;2022-09-09T18:12:38;99110.78;;;24.13;36.69
25650;BME280;13505;45.196;5.696;2022-09-09T18:17:28;99114.66;;;24.10;37.42
25650;BME280;13505;45.196;5.696;2022-09-09T18:22:19;99127.69;;;23.97;37.71
25650;BME280;13505;45.196;5.696;2022-09-09T18:27:09;99135.41;;;23.92;36.98
25650;BME280;13505;45.196;5.696;2022-09-09T18:32:00;99143.28;;;23.85;37.16
25650;BME280;13505;45.196;5.696;2022-09-09T18:36:52;99153.78;;;23.78;37.27
25650;BME280;13505;45.196;5.696;2022-09-09T18:41:48;99151.44;;;23.75;37.94
25650;BME280;13505;45.196;5.696;2022-09-09T18:46:42;99148.38;;;23.70;37.13
25650;BME280;13505;45.196;5.696;2022-09-09T18:51:32;99140.44;;;23.68;37.55
25650;BME280;13505;45.196;5.696;2022-09-09T18:56:24;99169.53;;;23.65;37.11
25650;BME280;13505;45.196;5.696;2022-09-09T19:01:14;99173.13;;;23.55;36.79
25650;BME280;13505;45.196;5.696;2022-09-09T19:06:13;99179.31;;;23.48;38.63
25650;BME280;13505;45.196;5.696;2022-09-09T19:11:10;99182.75;;;23.40;38.34
25650;BME280;13505;45.196;5.696;2022-09-09T19:16:09;99189.38;;;23.27;38.48
25650;BME280;13505;45.196;5.696;2022-09-09T19:26:02;99201.78;;;23.10;39.04
25650;BME280;13505;45.196;5.696;2022-09-09T19:30:52;99204.16;;;22.85;41.66
25650;BME280;13505;45.196;5.696;2022-09-09T19:35:43;99202.97;;;22.70;40.67
25650;BME280;13505;45.196;5.696;2022-09-09T19:40:34;99209.06;;;22.62;41.36
25650;BME280;13505;45.196;5.696;2022-09-09T19:45:25;99218.88;;;22.53;41.75
25650;BME280;13505;45.196;5.696;2022-09-09T19:50:16;99228.50;;;22.36;41.82
25650;BME280;13505;45.196;5.696;2022-09-09T19:55:07;99229.81;;;22.32;41.71
25650;BME280;13505;45.196;5.696;2022-09-09T19:59:57;99247.06;;;22.29;41.86
25650;BME280;13505;45.196;5.696;2022-09-09T20:04:49;99266.25;;;22.44;41.48
25650;BME280;13505;45.196;5.696;2022-09-09T20:09:40;99293.56;;;22.40;42.76
25650;BME280;13505;45.196;5.696;2022-09-09T20:14:30;99303.47;;;22.29;44.17
25650;BME280;13505;45.196;5.696;2022-09-09T20:19:20;99296.25;;;22.20;44.59
25650;BME280;13505;45.196;5.696;2022-09-09T20:24:12;99303.75;;;22.16;45.16
25650;BME280;13505;45.196;5.696;2022-09-09T20:29:09;99299.13;;;21.99;46.72
25650;BME280;13505;45.196;5.696;2022-09-09T20:34:00;99305.34;;;21.89;46.75
25650;BME280;13505;45.196;5.696;2022-09-09T20:38:54;99312.66;;;21.87;46.67
25650;BME280;13505;45.196;5.696;2022-09-09T20:43:48;99328.22;;;21.84;46.96
25650;BME280;13505;45.196;5.696;2022-09-09T20:48:39;99326.78;;;21.80;46.93
25650;BME280;13505;45.196;5.696;2022-09-09T20:53:31;99336.69;;;21.79;46.82
25650;BME280;13505;45.196;5.696;2022-09-09T20:58:22;99331.91;;;21.83;46.58
25650;BME280;13505;45.196;5.696;2022-09-09T21:03:13;99331.44;;;21.87;46.64
25650;BME280;13505;45.196;5.696;2022-09-09T21:08:03;99334.00;;;21.79;46.90
25650;BME280;13505;45.196;5.696;2022-09-09T21:12:54;99334.97;;;21.68;46.91
25650;BME280;13505;45.196;5.696;2022-09-09T21:17:44;99339.50;;;21.68;47.20
25650;BME280;13505;45.196;5.696;2022-09-09T21:22:35;99343.56;;;21.62;47.36
25650;BME280;13505;45.196;5.696;2022-09-09T21:27:25;99341.13;;;21.59;47.50
25650;BME280;13505;45.196;5.696;2022-09-09T21:32:16;99352.53;;;21.51;48.20
25650;BME280;13505;45.196;5.696;2022-09-09T21:37:07;99349.88;;;21.51;48.20
25650;BME280;13505;45.196;5.696;2022-09-09T21:41:58;99350.00;;;21.50;47.87
25650;BME280;13505;45.196;5.696;2022-09-09T21:46:49;99343.09;;;21.47;48.22
25650;BME280;13505;45.196;5.696;2022-09-09T21:51:40;99350.41;;;21.45;48.77
25650;BME280;13505;45.196;5.696;2022-09-09T21:56:30;99362.28;;;21.42;48.79
